createdAt,value
2022-11-15T00:01:26.117Z,13.40
2022-11-15T00:04:17.271Z,13.32
2022-11-15T00:07:08.434Z,12.23
2022-11-15T00:09:59.631Z,13.18
2022-11-15T00:12:50.765Z,12.28
2022-11-15T00:15:43.577Z,11.15
2022-11-15T00:18:34.905Z,11.78
2022-11-15T00:21:26.148Z,10.75
2022-11-15T00:24:17.382Z,11.50
2022-11-15T00:27:08.311Z,10.50
2022-11-15T00:29:59.001Z,10.65
2022-11-15T00:32:50.082Z,11.80
2022-11-15T00:35:40.792Z,13.40
2022-11-15T00:38:39.498Z,12.60
2022-11-15T00:41:30.458Z,11.80
2022-11-15T00:44:21.422Z,11.68
2022-11-15T00:47:12.569Z,11.48
2022-11-15T00:50:03.136Z,11.15
2022-11-15T00:52:53.890Z,10.98
2022-11-15T00:55:44.718Z,10.72
2022-11-15T00:58:35.992Z,11.80
2022-11-15T01:01:26.894Z,10.43
2022-11-15T01:04:17.883Z,10.35
2022-11-15T01:07:08.809Z,10.32
2022-11-15T01:09:59.905Z,9.75
2022-11-15T01:12:51.877Z,9.55
2022-11-15T01:15:44.307Z,9.93
2022-11-15T01:18:35.508Z,9.43
2022-11-15T01:21:26.880Z,10.70
2022-11-15T01:24:18.333Z,8.85
2022-11-15T01:27:10.509Z,10.05
2022-11-15T01:30:01.724Z,10.65
2022-11-15T01:32:53.686Z,10.85
2022-11-15T01:35:44.638Z,12.45
2022-11-15T01:38:35.483Z,11.28
2022-11-15T01:41:30.233Z,9.90
2022-11-15T01:44:48.835Z,7.87
2022-11-15T01:47:43.241Z,7.80
2022-11-15T01:50:36.058Z,8.55
2022-11-15T01:53:28.430Z,9.08
2022-11-15T01:56:26.028Z,8.98
2022-11-15T01:59:17.399Z,8.93
2022-11-15T02:02:09.157Z,9.55
2022-11-15T02:05:00.240Z,10.25
2022-11-15T02:07:52.362Z,8.95
2022-11-15T02:10:43.327Z,10.68
2022-11-15T02:13:34.605Z,10.82
2022-11-15T02:16:50.625Z,12.18
2022-11-15T02:19:59.071Z,10.10
2022-11-15T02:23:14.798Z,10.55
2022-11-15T02:26:35.679Z,10.75
2022-11-15T02:29:49.019Z,9.33
2022-11-15T02:32:49.962Z,8.05
2022-11-15T02:36:00.396Z,7.60
2022-11-15T02:39:07.674Z,7.80
2022-11-15T02:42:08.198Z,6.92
2022-11-15T02:45:00.675Z,6.45
2022-11-15T02:47:54.197Z,5.45
2022-11-15T02:50:46.358Z,5.60
2022-11-15T02:53:37.284Z,5.35
2022-11-15T02:56:28.413Z,5.58
2022-11-15T03:00:01.216Z,5.30
2022-11-15T03:03:34.454Z,5.83
2022-11-15T03:06:44.944Z,6.08
2022-11-15T03:09:46.331Z,6.50
2022-11-15T03:12:48.049Z,8.23
2022-11-15T03:15:43.007Z,8.10
2022-11-15T03:18:46.282Z,7.22
2022-11-15T03:21:38.521Z,7.80
2022-11-15T03:24:31.192Z,6.67
2022-11-15T03:27:25.492Z,5.97
2022-11-15T03:30:17.499Z,7.22
2022-11-15T03:33:09.044Z,6.80
2022-11-15T03:35:59.920Z,6.65
2022-11-15T03:38:51.906Z,6.40
2022-11-15T03:41:57.404Z,9.75
2022-11-15T03:45:14.545Z,5.45
2022-11-15T03:48:19.065Z,4.87
2022-11-15T03:51:09.938Z,4.70
2022-11-15T03:54:01.736Z,4.83
2022-11-15T03:56:53.115Z,4.70
2022-11-15T03:59:43.969Z,5.42
2022-11-15T04:02:34.910Z,5.47
2022-11-15T04:05:25.886Z,4.47
2022-11-15T04:08:18.349Z,4.75
2022-11-15T04:11:09.822Z,4.50
2022-11-15T04:14:00.755Z,5.12
2022-11-15T04:16:52.235Z,4.72
2022-11-15T04:20:02.156Z,6.40
2022-11-15T04:23:16.250Z,7.30
2022-11-15T04:26:14.136Z,10.28
2022-11-15T04:29:23.100Z,10.95
2022-11-15T04:32:14.099Z,14.85
2022-11-15T04:35:04.978Z,17.48
2022-11-15T04:37:56.053Z,20.60
2022-11-15T04:40:46.696Z,19.45
2022-11-15T04:43:38.578Z,18.85
2022-11-15T04:46:30.096Z,17.82
2022-11-15T04:49:21.400Z,17.12
2022-11-15T04:52:11.843Z,14.38
2022-11-15T04:55:07.881Z,9.88
2022-11-15T04:58:05.849Z,7.75
2022-11-15T05:00:57.189Z,6.90
2022-11-15T05:04:07.332Z,5.12
2022-11-15T05:06:58.274Z,5.28
2022-11-15T05:09:50.211Z,5.58
2022-11-15T05:12:41.262Z,9.00
2022-11-15T05:15:32.881Z,13.03
2022-11-15T05:18:24.064Z,15.18
2022-11-15T05:21:17.842Z,13.53
2022-11-15T05:24:09.099Z,10.63
2022-11-15T05:27:00.590Z,16.10
2022-11-15T05:29:52.380Z,9.60
2022-11-15T05:32:43.405Z,9.50
2022-11-15T05:35:44.786Z,6.47
2022-11-15T05:38:36.071Z,5.70
2022-11-15T05:41:37.670Z,6.10
2022-11-15T05:44:28.717Z,6.37
2022-11-15T05:47:25.655Z,6.40
2022-11-15T05:50:18.694Z,5.70
2022-11-15T05:53:09.744Z,5.28
2022-11-15T05:56:00.960Z,5.30
2022-11-15T05:58:56.763Z,4.80
2022-11-15T06:01:45.611Z,6.97
2022-11-15T06:04:36.996Z,16.40
2022-11-15T06:07:27.971Z,13.83
2022-11-15T06:10:19.062Z,11.75
2022-11-15T06:13:10.873Z,8.00
2022-11-15T06:16:02.122Z,7.33
2022-11-15T06:18:53.835Z,6.20
2022-11-15T06:21:45.736Z,6.08
2022-11-15T06:24:36.285Z,6.35
2022-11-15T06:27:27.018Z,8.13
2022-11-15T06:30:17.979Z,7.95
2022-11-15T06:33:10.261Z,8.18
2022-11-15T06:36:07.086Z,7.62
2022-11-15T06:38:57.428Z,6.30
2022-11-15T06:41:47.793Z,6.80
2022-11-15T06:44:39.793Z,7.30
2022-11-15T06:47:30.733Z,7.17
2022-11-15T06:50:21.519Z,7.47
2022-11-15T06:53:12.234Z,6.50
2022-11-15T06:56:06.228Z,6.50
2022-11-15T06:58:58.067Z,5.33
2022-11-15T07:01:48.880Z,7.37
2022-11-15T07:04:40.200Z,9.83
2022-11-15T07:07:31.507Z,10.25
2022-11-15T07:10:25.830Z,10.28
2022-11-15T07:13:17.486Z,6.58
2022-11-15T07:16:11.792Z,6.62
2022-11-15T07:19:03.537Z,6.30
2022-11-15T07:21:54.309Z,6.17
2022-11-15T07:24:45.615Z,6.03
2022-11-15T07:27:36.327Z,7.35
2022-11-15T07:30:28.206Z,6.90
2022-11-15T07:33:19.184Z,6.58
2022-11-15T07:36:11.428Z,6.17
2022-11-15T07:39:02.301Z,5.45
2022-11-15T07:41:55.116Z,6.35
2022-11-15T07:44:46.637Z,6.37
2022-11-15T07:47:38.300Z,4.53
2022-11-15T07:50:32.279Z,4.10
2022-11-15T07:53:23.195Z,4.20
2022-11-15T07:56:15.007Z,3.65
2022-11-15T07:59:06.241Z,5.72
2022-11-15T08:01:57.584Z,6.62
2022-11-15T08:04:50.411Z,5.28
2022-11-15T08:07:41.678Z,4.15
2022-11-15T08:10:37.734Z,4.03
2022-11-15T08:13:25.216Z,4.00
2022-11-15T08:16:16.635Z,4.15
2022-11-15T08:19:07.559Z,3.92
2022-11-15T08:21:58.246Z,3.77
2022-11-15T08:24:49.409Z,4.12
2022-11-15T08:27:41.803Z,4.78
2022-11-15T08:30:39.530Z,4.78
2022-11-15T08:33:31.425Z,4.85
2022-11-15T08:36:24.755Z,4.92
2022-11-15T08:39:15.974Z,4.47
2022-11-15T08:42:06.636Z,4.62
2022-11-15T08:44:57.632Z,4.53
2022-11-15T08:47:53.936Z,5.03
2022-11-15T08:50:42.165Z,4.97
2022-11-15T08:53:33.198Z,4.45
2022-11-15T08:56:25.133Z,4.70
2022-11-15T08:59:16.002Z,4.40
2022-11-15T09:02:07.448Z,6.20
2022-11-15T09:04:59.436Z,6.05
2022-11-15T09:07:52.306Z,5.62
2022-11-15T09:10:43.176Z,5.87
2022-11-15T09:13:33.995Z,5.47
2022-11-15T09:16:24.853Z,4.25
2022-11-15T09:19:16.732Z,4.00
2022-11-15T09:22:09.598Z,3.90
2022-11-15T09:25:00.030Z,3.98
2022-11-15T09:27:51.295Z,4.47
2022-11-15T09:30:42.198Z,5.37
2022-11-15T09:33:34.790Z,4.60
2022-11-15T09:36:29.777Z,4.25
2022-11-15T09:39:21.046Z,4.70
2022-11-15T09:42:40.333Z,4.42
2022-11-15T09:46:02.226Z,3.80
2022-11-15T09:48:55.362Z,3.85
2022-11-15T09:51:48.207Z,3.85
2022-11-15T09:54:53.249Z,4.03
2022-11-15T09:57:22.114Z,3.83
2022-11-15T10:00:45.930Z,3.60
2022-11-15T10:02:55.379Z,3.65
2022-11-15T10:05:30.412Z,4.33
2022-11-15T10:08:29.526Z,4.37
2022-11-15T10:13:50.589Z,4.00
2022-11-15T10:17:01.510Z,4.05
2022-11-15T10:19:42.268Z,3.70
2022-11-15T10:22:59.290Z,3.87
2022-11-15T10:25:35.265Z,3.98
2022-11-15T10:28:32.655Z,3.83
2022-11-15T10:31:13.047Z,3.30
2022-11-15T10:33:45.238Z,3.20
2022-11-15T10:36:26.946Z,3.65
2022-11-15T10:39:00.725Z,3.40
2022-11-15T10:41:38.141Z,4.42
2022-11-15T10:44:29.585Z,4.72
2022-11-15T10:47:11.092Z,4.42
2022-11-15T10:49:48.656Z,4.85
2022-11-15T10:52:23.600Z,4.22
2022-11-15T10:55:04.029Z,4.85
2022-11-15T10:57:40.015Z,5.03
2022-11-15T11:00:25.295Z,4.20
2022-11-15T11:03:11.378Z,8.60
2022-11-15T11:05:44.976Z,5.05
2022-11-15T11:08:25.216Z,5.07
2022-11-15T11:11:04.013Z,4.83
2022-11-15T11:13:40.632Z,5.08
2022-11-15T11:16:42.367Z,4.47
2022-11-15T11:19:34.801Z,4.70
2022-11-15T11:22:45.933Z,4.65
2022-11-15T11:25:33.237Z,5.28
2022-11-15T11:28:52.707Z,4.80
2022-11-15T11:31:55.018Z,5.03
2022-11-15T11:34:56.206Z,4.25
2022-11-15T11:37:54.811Z,5.12
2022-11-15T11:40:46.657Z,4.08
2022-11-15T11:43:54.614Z,4.97
2022-11-15T11:46:55.605Z,4.15
2022-11-15T11:49:55.069Z,4.05
2022-11-15T11:52:32.658Z,4.17
2022-11-15T11:55:33.833Z,4.58
2022-11-15T11:58:17.374Z,5.45
2022-11-15T12:01:00.628Z,4.72
2022-11-15T12:03:44.354Z,4.08
2022-11-15T12:06:46.773Z,4.08
2022-11-15T12:09:36.843Z,5.55
2022-11-15T12:12:38.987Z,3.70
2022-11-15T12:15:18.498Z,4.75
2022-11-15T12:17:51.921Z,4.10
2022-11-15T12:20:36.804Z,3.92
2022-11-15T12:23:23.273Z,4.70
2022-11-15T12:26:04.984Z,5.22
2022-11-15T12:29:10.277Z,4.85
2022-11-15T12:31:45.262Z,5.33
2022-11-15T12:34:44.396Z,5.70
2022-11-15T12:37:41.845Z,5.90
2022-11-15T12:40:34.912Z,6.50
2022-11-15T12:43:21.654Z,6.35
2022-11-15T12:45:55.676Z,6.60
2022-11-15T12:48:39.239Z,5.30
2022-11-15T12:51:12.595Z,5.30
2022-11-15T12:53:46.520Z,5.45
2022-11-15T12:56:22.579Z,6.60
2022-11-15T12:59:00.339Z,8.05
2022-11-15T13:01:43.909Z,7.65
2022-11-15T13:04:28.910Z,10.53
2022-11-15T13:07:08.878Z,8.70
2022-11-15T13:09:47.069Z,7.00
2022-11-15T13:12:36.334Z,7.25
2022-11-15T13:15:23.289Z,7.55
2022-11-15T13:17:58.744Z,6.37
2022-11-15T13:20:35.485Z,5.55
2022-11-15T13:23:16.749Z,7.03
2022-11-15T13:26:11.627Z,6.87
2022-11-15T13:28:55.057Z,5.53
2022-11-15T13:31:39.940Z,8.05
2022-11-15T13:34:50.540Z,6.50
2022-11-15T13:37:02.414Z,6.22
2022-11-15T13:39:38.652Z,6.97
2022-11-15T13:42:18.147Z,6.72
2022-11-15T13:45:03.462Z,6.80
2022-11-15T13:47:36.799Z,6.83
2022-11-15T13:50:14.711Z,7.53
2022-11-15T13:52:50.375Z,5.47
2022-11-15T13:55:25.399Z,6.47
2022-11-15T13:58:01.258Z,5.40
2022-11-15T14:00:44.524Z,6.12
2022-11-15T14:03:27.018Z,6.40
2022-11-15T14:06:21.898Z,6.22
2022-11-15T14:09:14.942Z,5.75
2022-11-15T14:11:56.652Z,6.85
2022-11-15T14:14:32.046Z,8.30
2022-11-15T14:17:04.836Z,9.65
2022-11-15T14:19:40.876Z,8.63
2022-11-15T14:22:23.641Z,6.67
2022-11-15T14:25:23.238Z,6.05
2022-11-15T14:28:29.268Z,5.58
2022-11-15T14:31:03.658Z,5.50
2022-11-15T14:33:41.361Z,6.40
2022-11-15T14:36:21.860Z,8.00
2022-11-15T14:38:55.522Z,9.63
2022-11-15T14:41:30.937Z,15.75
2022-11-15T14:44:04.878Z,13.13
2022-11-15T14:46:37.710Z,12.47
2022-11-15T14:49:10.793Z,13.30
2022-11-15T14:51:44.045Z,16.12
2022-11-15T14:54:17.327Z,13.20
2022-11-15T14:56:50.336Z,10.15
2022-11-15T14:59:23.563Z,10.18
2022-11-15T15:01:56.857Z,8.47
2022-11-15T15:04:29.742Z,7.83
2022-11-15T15:07:03.001Z,7.33
2022-11-15T15:09:35.868Z,6.25
2022-11-15T15:12:14.280Z,6.62
2022-11-15T15:14:48.779Z,5.83
2022-11-15T15:17:21.743Z,7.25
2022-11-15T15:19:54.657Z,9.33
2022-11-15T15:22:29.120Z,9.33
2022-11-15T15:25:02.276Z,9.18
2022-11-15T15:27:35.588Z,8.70
2022-11-15T15:30:10.570Z,9.03
2022-11-15T15:32:43.658Z,8.48
2022-11-15T15:35:18.555Z,8.00
2022-11-15T15:37:52.671Z,7.22
2022-11-15T15:42:58.484Z,7.53
2022-11-15T15:45:31.370Z,7.42
2022-11-15T15:48:04.411Z,7.92
2022-11-15T15:50:37.981Z,7.00
2022-11-15T15:53:11.767Z,7.95
2022-11-15T15:55:45.452Z,7.62
2022-11-15T15:58:18.204Z,8.95
2022-11-15T16:00:51.171Z,8.28
2022-11-15T16:03:24.960Z,10.15
2022-11-15T16:05:59.470Z,11.15
2022-11-15T16:08:47.495Z,12.85
2022-11-15T16:11:09.352Z,12.73
2022-11-15T16:13:42.225Z,12.68
2022-11-15T16:16:16.745Z,11.70
2022-11-15T16:18:49.834Z,13.35
2022-11-15T16:21:23.308Z,11.90
2022-11-15T16:23:56.541Z,10.95
2022-11-15T16:26:45.425Z,11.48
2022-11-15T16:29:19.110Z,11.05
2022-11-15T16:31:52.098Z,10.65
2022-11-15T16:34:30.028Z,10.55
2022-11-15T16:37:00.211Z,11.57
2022-11-15T16:39:34.310Z,11.00
2022-11-15T16:42:08.032Z,10.93
2022-11-15T16:44:41.259Z,13.78
2022-11-15T16:47:22.972Z,10.82
2022-11-15T16:49:56.252Z,11.50
2022-11-15T16:52:29.305Z,9.95
2022-11-15T16:55:02.925Z,11.28
2022-11-15T16:57:36.622Z,12.28
2022-11-15T17:00:15.451Z,11.78
2022-11-15T17:02:51.099Z,11.97
2022-11-15T17:05:27.337Z,12.25
2022-11-15T17:08:00.564Z,11.85
2022-11-15T17:10:33.808Z,12.13
2022-11-15T17:13:06.744Z,12.68
2022-11-15T17:15:39.780Z,12.10
2022-11-15T17:18:15.723Z,11.60
2022-11-15T17:20:48.892Z,10.95
2022-11-15T17:23:22.658Z,10.90
2022-11-15T17:26:23.917Z,9.90
2022-11-15T17:28:40.490Z,7.95
2022-11-15T17:31:15.462Z,9.70
2022-11-15T17:33:48.474Z,9.28
2022-11-15T17:36:21.374Z,9.93
2022-11-15T17:38:59.315Z,9.03
2022-11-15T17:41:29.872Z,9.20
2022-11-15T17:44:03.924Z,9.38
2022-11-15T17:46:37.439Z,8.98
2022-11-15T17:49:10.327Z,8.53
2022-11-15T17:51:46.167Z,9.68
2022-11-15T17:54:17.869Z,9.70
2022-11-15T17:56:51.866Z,9.60
2022-11-15T17:59:25.176Z,8.18
2022-11-15T18:01:58.480Z,9.67
2022-11-15T18:04:31.835Z,8.90
2022-11-15T18:07:04.967Z,8.00
2022-11-15T18:09:40.360Z,8.35
2022-11-15T18:12:14.524Z,9.48
2022-11-15T18:14:47.551Z,7.85
2022-11-15T18:17:21.157Z,7.80
2022-11-15T18:19:54.192Z,8.70
2022-11-15T18:22:27.734Z,9.83
2022-11-15T18:25:00.902Z,8.78
2022-11-15T18:27:34.378Z,7.58
2022-11-15T18:30:09.323Z,8.78
2022-11-15T18:32:43.328Z,8.70
2022-11-15T18:35:16.628Z,8.50
2022-11-15T18:37:49.932Z,8.17
2022-11-15T18:40:22.921Z,7.92
2022-11-15T18:42:56.304Z,9.78
2022-11-15T18:45:29.389Z,7.60
2022-11-15T18:48:02.312Z,8.18
2022-11-15T18:50:36.860Z,10.28
2022-11-15T18:53:10.455Z,9.83
2022-11-15T18:55:43.798Z,7.85
2022-11-15T18:58:16.773Z,9.43
2022-11-15T19:00:50.879Z,8.35
2022-11-15T19:03:24.786Z,9.80
2022-11-15T19:06:17.096Z,9.98
2022-11-15T19:08:53.371Z,8.73
2022-11-15T19:11:31.303Z,8.20
2022-11-15T19:14:08.564Z,8.78
2022-11-15T19:16:45.348Z,8.90
2022-11-15T19:19:28.010Z,12.00
2022-11-15T19:22:02.268Z,9.88
2022-11-15T19:24:51.690Z,10.93
2022-11-15T19:27:24.700Z,10.95
2022-11-15T19:29:57.597Z,10.95
2022-11-15T19:32:30.950Z,9.58
2022-11-15T19:35:05.074Z,10.08
2022-11-15T19:37:39.121Z,14.80
2022-11-15T19:40:13.698Z,13.40
2022-11-15T19:42:47.480Z,12.15
2022-11-15T19:45:20.318Z,15.03
2022-11-15T19:47:53.380Z,20.35
2022-11-15T19:50:26.451Z,22.90
2022-11-15T19:53:00.730Z,19.83
2022-11-15T19:58:05.496Z,22.73
2022-11-15T20:00:39.083Z,24.15
2022-11-15T20:03:12.051Z,29.10
2022-11-15T20:05:45.308Z,27.75
2022-11-15T20:08:18.659Z,31.93
2022-11-15T20:10:51.477Z,34.93
2022-11-15T20:13:24.735Z,26.27
2022-11-15T20:15:57.923Z,27.87
2022-11-15T20:18:32.064Z,23.83
2022-11-15T20:21:06.613Z,21.12
2022-11-15T20:23:39.853Z,28.30
2022-11-15T20:26:13.333Z,22.37
2022-11-15T20:28:48.432Z,25.82
2022-11-15T20:31:22.088Z,26.70
2022-11-15T20:33:55.310Z,24.27
2022-11-15T20:36:28.594Z,19.80
2022-11-15T20:39:02.253Z,20.02
2022-11-15T20:44:07.980Z,18.57
2022-11-15T20:46:41.070Z,19.82
2022-11-15T20:49:14.290Z,19.80
2022-11-15T20:51:48.238Z,23.10
2022-11-15T20:54:21.304Z,19.90
2022-11-15T20:56:55.404Z,22.53
2022-11-15T20:59:28.428Z,27.35
2022-11-15T21:02:18.546Z,43.73
2022-11-15T21:07:24.715Z,27.80
2022-11-15T21:10:15.226Z,22.58
2022-11-15T21:12:48.443Z,17.32
2022-11-15T21:15:21.441Z,16.02
2022-11-15T21:17:55.014Z,15.40
2022-11-15T21:20:28.343Z,16.73
2022-11-15T21:23:01.753Z,16.42
2022-11-15T21:25:35.860Z,14.20
2022-11-15T21:28:08.699Z,12.75
2022-11-15T21:30:41.755Z,13.90
2022-11-15T21:33:15.697Z,15.25
2022-11-15T21:35:48.708Z,21.87
2022-11-15T21:38:23.991Z,17.48
2022-11-15T21:40:57.466Z,16.67
2022-11-15T21:43:30.433Z,20.37
2022-11-15T21:46:07.437Z,25.40
2022-11-15T21:48:40.875Z,29.48
2022-11-15T21:51:14.237Z,22.52
2022-11-15T21:53:47.240Z,19.55
2022-11-15T21:56:20.635Z,19.10
2022-11-15T21:58:54.797Z,22.17
2022-11-15T22:01:47.129Z,22.98
2022-11-15T22:04:21.963Z,24.12
2022-11-15T22:06:55.293Z,24.90
2022-11-15T22:09:28.415Z,27.20
2022-11-15T22:12:01.601Z,29.10
2022-11-15T22:14:36.052Z,33.55
2022-11-15T22:17:15.354Z,30.68
2022-11-15T22:19:52.883Z,28.85
2022-11-15T22:22:23.200Z,26.00
2022-11-15T22:24:57.798Z,31.60
2022-11-15T22:27:32.526Z,29.52
2022-11-15T22:30:06.655Z,30.50
2022-11-15T22:32:40.654Z,25.75
2022-11-15T22:35:14.138Z,23.87
2022-11-15T22:37:47.322Z,25.77
2022-11-15T22:40:20.774Z,23.20
2022-11-15T22:42:54.163Z,23.67
2022-11-15T22:45:27.455Z,26.27
2022-11-15T22:48:00.833Z,26.65
2022-11-15T22:50:34.230Z,25.62
2022-11-15T22:53:07.388Z,23.33
2022-11-15T22:55:42.025Z,22.45
2022-11-15T22:58:15.712Z,25.12
2022-11-15T23:00:52.274Z,23.25
2022-11-15T23:03:28.473Z,26.15
2022-11-15T23:06:07.589Z,23.65
2022-11-15T23:08:41.213Z,22.95
2022-11-15T23:11:32.769Z,27.07
2022-11-15T23:14:07.376Z,26.17
2022-11-15T23:16:40.859Z,24.43
2022-11-15T23:19:15.357Z,22.25
2022-11-15T23:33:17.299Z,23.38
2022-11-15T23:35:57.644Z,22.82
2022-11-15T23:38:30.934Z,26.15
2022-11-15T23:41:05.781Z,22.80
2022-11-15T23:43:38.889Z,21.70
2022-11-15T23:46:12.043Z,21.93
2022-11-15T23:48:46.032Z,19.90
2022-11-15T23:51:19.361Z,21.70
2022-11-15T23:53:52.548Z,20.20
2022-11-15T23:56:25.689Z,20.43
2022-11-15T23:58:59.922Z,19.70
